Time;durP1;ratioP1;P1;durP2;ratioP2;P2;SDS_P1;SDS_P2;PMS_P1;PMS_P2;Temp;Humidity;BMP_temperature;BMP_pressure;BME280_temperature;BME280_humidity;BME280_pressure;Samples;Min_cycle;Max_cycle;Signal;HPM_P1;HPM_P2
2023/08/05 00:00:42;;;;;;;6.47;2.75;;;;;;;20.60;100.00;97139.53;4424640;32;20220;-80
2023/08/05 00:03:09;;;;;;;4.60;2.10;;;;;;;20.35;100.00;97121.91;4424338;32;20100;-80
2023/08/05 00:05:39;;;;;;;4.53;2.12;;;;;;;19.40;100.00;97117.00;4424553;32;20100;-80
2023/08/05 00:08:06;;;;;;;4.25;2.12;;;;;;;19.72;100.00;97116.62;4411129;32;20116;-80
2023/08/05 00:10:34;;;;;;;4.95;2.70;;;;;;;19.44;100.00;97113.94;4410284;32;20174;-80
2023/08/05 00:13:01;;;;;;;5.20;2.40;;;;;;;19.70;100.00;97108.09;4424438;32;20098;-80
2023/08/05 00:15:28;;;;;;;4.68;2.40;;;;;;;19.98;100.00;97114.94;4424426;32;20390;-80
2023/08/05 00:17:55;;;;;;;5.65;2.37;;;;;;;21.01;96.69;97132.00;4424107;32;20116;-80
2023/08/05 00:20:22;;;;;;;4.30;1.92;;;;;;;22.10;88.20;97148.88;4424399;32;20109;-80
2023/08/05 00:22:48;;;;;;;4.28;2.12;;;;;;;22.37;85.51;97147.81;4424395;32;20173;-80
2023/08/05 00:25:16;;;;;;;4.90;2.25;;;;;;;22.41;84.72;97129.91;4424064;32;20164;-80
2023/08/05 00:27:43;;;;;;;4.50;2.10;;;;;;;21.89;87.18;97101.16;4424327;32;20121;-80
2023/08/05 00:30:10;;;;;;;4.43;2.10;;;;;;;21.84;88.72;97093.78;4423933;32;20118;-80
2023/08/05 00:32:37;;;;;;;5.40;1.95;;;;;;;21.57;89.53;97105.31;4423880;32;20094;-80
2023/08/05 00:35:05;;;;;;;3.40;1.58;;;;;;;20.13;99.26;97103.03;4425707;32;20360;-80
2023/08/05 00:37:32;;;;;;;3.70;1.85;;;;;;;20.00;100.00;97096.50;4426040;32;20090;-80
2023/08/05 00:40:00;;;;;;;5.57;2.00;;;;;;;19.69;100.00;97086.34;4412498;32;20121;-80
2023/08/05 00:42:27;;;;;;;3.40;1.95;;;;;;;19.53;100.00;97096.56;4412616;32;20354;-80
2023/08/05 00:44:54;;;;;;;5.40;2.35;;;;;;;19.81;100.00;97100.06;4412190;32;20108;-80
2023/08/05 00:47:22;;;;;;;4.93;2.20;;;;;;;20.16;100.00;97110.56;4426243;32;20119;-80
2023/08/05 00:49:50;;;;;;;4.05;2.05;;;;;;;19.59;100.00;97111.72;4426254;32;20494;-80
2023/08/05 00:52:19;;;;;;;5.22;2.10;;;;;;;19.96;100.00;97109.03;4412107;32;20114;-80
2023/08/05 00:54:46;;;;;;;4.72;1.87;;;;;;;20.68;99.98;97121.25;4426278;32;20596;-80
2023/08/05 00:57:13;;;;;;;5.25;2.30;;;;;;;20.99;97.10;97137.41;4426288;32;20101;-80
2023/08/05 00:59:40;;;;;;;5.37;2.40;;;;;;;20.47;100.00;97131.22;4425727;32;20168;-80
2023/08/05 01:02:07;;;;;;;6.03;2.40;;;;;;;20.58;98.04;97136.22;4426233;32;20093;-80
2023/08/05 01:04:34;;;;;;;5.50;2.33;;;;;;;21.88;90.43;97134.47;4426234;32;20093;-80
2023/08/05 01:07:02;;;;;;;4.85;2.55;;;;;;;21.73;89.83;97128.19;4425875;32;20073;-80
2023/08/05 01:09:29;;;;;;;7.22;2.50;;;;;;;21.51;92.25;97113.81;4412350;32;20132;-80
2023/08/05 01:11:56;;;;;;;5.45;2.50;;;;;;;21.06;95.02;97095.66;4412345;32;20173;-80
2023/08/05 01:14:23;;;;;;;5.60;2.35;;;;;;;21.03;93.78;97057.44;4425777;32;20081;-80
2023/08/05 01:16:49;;;;;;;3.83;2.03;;;;;;;21.10;95.34;97055.03;4426085;32;20081;-80
2023/08/05 01:19:17;;;;;;;6.07;2.50;;;;;;;21.09;95.08;97048.12;4425955;32;20098;-80
2023/08/05 01:22:19;;;;;;;5.60;2.50;;;;;;;20.83;96.93;97086.62;4425690;32;20112;-80
2023/08/05 01:24:48;;;;;;;9.20;2.75;;;;;;;20.10;100.00;97044.91;4426097;32;20100;-80
2023/08/05 01:27:15;;;;;;;6.37;2.75;;;;;;;20.94;98.19;97070.62;4425593;32;20121;-79
2023/08/05 01:29:42;;;;;;;7.12;2.67;;;;;;;21.19;94.21;97110.97;4425716;32;20106;-79
2023/08/05 01:32:09;;;;;;;6.97;2.90;;;;;;;21.64;91.64;97114.22;4412230;32;20097;-79
2023/08/05 01:34:37;;;;;;;6.15;2.30;;;;;;;21.41;93.67;97057.19;4411838;32;20090;-80
2023/08/05 01:37:04;;;;;;;4.97;2.42;;;;;;;20.19;100.00;97009.94;4426058;32;20093;-80
2023/08/05 01:39:31;;;;;;;6.70;2.58;;;;;;;19.92;100.00;97006.44;4425975;32;20112;-79
2023/08/05 01:41:58;;;;;;;7.80;2.67;;;;;;;19.51;100.00;97010.38;4425614;32;20462;-79
2023/08/05 01:44:25;;;;;;;6.43;2.60;;;;;;;18.98;100.00;97018.03;4425911;32;20091;-79
2023/08/05 01:46:52;;;;;;;6.60;3.03;;;;;;;18.42;100.00;97003.16;4425349;32;20107;-79
2023/08/05 01:49:19;;;;;;;7.55;3.47;;;;;;;18.89;100.00;96998.81;4411622;32;20098;-79
2023/08/05 01:51:46;;;;;;;8.93;3.50;;;;;;;19.08;100.00;96988.28;4425872;32;20085;-79
2023/08/05 01:54:13;;;;;;;9.52;3.55;;;;;;;19.64;100.00;96976.03;4412005;32;20094;-79
2023/08/05 01:56:40;;;;;;;6.47;2.83;;;;;;;20.83;100.00;97029.78;4425272;32;20427;-79
2023/08/05 01:59:07;;;;;;;6.35;2.80;;;;;;;20.69;100.00;97182.34;4425769;32;20153;-79
2023/08/05 02:01:41;;;;;;;8.50;3.10;;;;;;;20.41;100.00;97219.03;4425644;32;20098;-79
2023/08/05 02:04:08;;;;;;;8.23;2.70;;;;;;;20.05;100.00;97086.41;4425782;32;20078;-79
2023/08/05 02:06:35;;;;;;;7.07;2.78;;;;;;;20.41;100.00;97053.16;4425731;32;20107;-79
2023/08/05 02:09:02;;;;;;;9.48;2.95;;;;;;;20.65;100.00;97089.28;4425459;32;20094;-79
2023/08/05 02:11:29;;;;;;;7.55;2.92;;;;;;;20.73;100.00;97110.31;4425619;32;20120;-79
2023/08/05 02:13:56;;;;;;;6.40;2.70;;;;;;;21.20;97.55;97083.78;4425517;32;20450;-79
2023/08/05 02:16:23;;;;;;;4.25;1.80;;;;;;;20.77;100.00;97060.06;4425258;32;20436;-79
2023/08/05 02:18:51;;;;;;;4.75;2.20;;;;;;;19.93;100.00;97063.03;4425849;32;20101;-79
2023/08/05 02:21:18;;;;;;;5.28;2.58;;;;;;;19.72;100.00;97062.47;4425634;32;20098;-79
2023/08/05 02:23:45;;;;;;;5.20;2.22;;;;;;;19.78;100.00;97055.81;4425330;32;20090;-79
2023/08/05 02:26:11;;;;;;;6.97;2.72;;;;;;;19.50;100.00;97052.37;4425528;32;20092;-79
2023/08/05 02:28:38;;;;;;;4.82;2.40;;;;;;;19.98;100.00;97052.13;4425763;32;20150;-79
2023/08/05 02:31:05;;;;;;;5.07;2.37;;;;;;;20.04;100.00;97062.00;4425005;32;20155;-79
2023/08/05 02:33:32;;;;;;;5.72;2.40;;;;;;;19.31;100.00;97050.66;4425593;32;20102;-79
2023/08/05 02:36:00;;;;;;;5.72;2.25;;;;;;;19.44;100.00;97047.72;4425492;32;20117;-79
2023/08/05 02:38:26;;;;;;;4.82;1.95;;;;;;;19.03;100.00;97048.03;4425092;32;20408;-79
2023/08/05 02:40:54;;;;;;;5.32;2.15;;;;;;;18.88;100.00;97049.44;4425455;32;20111;-79
2023/08/05 02:43:21;;;;;;;6.20;2.75;;;;;;;18.93;100.00;97049.03;4411798;32;20090;-79
2023/08/05 02:45:57;;;;;;;4.25;1.98;;;;;;;19.15;100.00;97038.22;4411392;32;20107;-79
2023/08/05 02:48:25;;;;;;;5.97;2.60;;;;;;;19.41;100.00;97037.56;4425708;32;20112;-79
2023/08/05 02:50:53;;;;;;;4.65;2.40;;;;;;;19.29;100.00;97024.66;4425044;32;20154;-80
2023/08/05 02:53:20;;;;;;;5.75;2.37;;;;;;;19.78;100.00;97020.03;4425474;32;20090;-80
2023/08/05 02:55:47;;;;;;;6.62;2.37;;;;;;;19.85;100.00;97018.44;4411626;32;20153;-80
2023/08/05 02:58:15;;;;;;;5.25;2.37;;;;;;;19.45;100.00;97008.31;4423885;32;20109;-79
2023/08/05 03:00:42;;;;;;;5.93;2.30;;;;;;;19.35;100.00;96997.94;4411586;32;20148;-80
2023/08/05 03:03:10;;;;;;;4.65;2.40;;;;;;;20.25;100.00;96990.19;4411541;32;20462;-80
2023/08/05 03:05:37;;;;;;;4.18;2.00;;;;;;;19.81;100.00;96975.22;4425006;32;20141;-80
2023/08/05 03:08:04;;;;;;;4.80;2.10;;;;;;;20.80;100.00;96977.66;4425546;32;20093;-80
2023/08/05 03:10:31;;;;;;;4.25;2.10;;;;;;;21.19;96.32;96992.94;4425243;32;20534;-80
2023/08/05 03:12:58;;;;;;;6.18;1.98;;;;;;;21.69;92.19;97002.62;4424900;32;20081;-80
2023/08/05 03:15:28;;;;;;;2.97;1.70;;;;;;;21.95;90.95;96998.13;4425245;32;20111;-80
2023/08/05 03:17:55;;;;;;;4.62;2.17;;;;;;;21.69;91.83;96997.37;4425266;32;20112;-80
2023/08/05 03:20:27;;;;;;;5.82;2.10;;;;;;;21.22;94.79;97003.94;4424807;32;20788;-80
2023/08/05 03:22:54;;;;;;;4.55;1.77;;;;;;;20.92;96.99;97002.62;4425244;32;20145;-80
2023/08/05 03:25:22;;;;;;;4.82;2.10;;;;;;;21.05;96.64;96989.94;4425219;32;20159;-80
2023/08/05 03:27:50;;;;;;;5.20;2.33;;;;;;;21.22;95.20;96990.81;4424780;32;20093;-80
2023/08/05 03:30:18;;;;;;;5.28;2.20;;;;;;;21.20;95.82;96992.78;4424820;32;20151;-80
2023/08/05 03:32:48;;;;;;;6.30;2.20;;;;;;;21.79;92.47;96985.75;4425128;32;20457;-80
2023/08/05 03:35:15;;;;;;;5.45;2.20;;;;;;;21.66;92.52;96988.84;4424668;32;20379;-80
2023/08/05 03:37:43;;;;;;;5.18;2.30;;;;;;;22.33;88.52;96994.09;4425127;32;20797;-80
2023/08/05 03:40:11;;;;;;;4.72;2.10;;;;;;;22.80;84.87;97006.50;4424605;32;20097;-80
2023/08/05 03:42:38;;;;;;;6.20;2.47;;;;;;;22.19;87.93;97010.47;4425067;32;20152;-80
2023/08/05 03:45:07;;;;;;;4.65;2.17;;;;;;;22.28;88.26;97000.81;4425018;32;20098;-80
2023/08/05 03:47:34;;;;;;;5.40;2.20;;;;;;;22.29;87.39;97011.16;4424629;32;20108;-80
2023/08/05 03:50:01;;;;;;;6.97;2.40;;;;;;;21.53;93.26;96988.50;4424816;32;20157;-80
2023/08/05 03:52:29;;;;;;;4.25;1.98;;;;;;;21.17;96.94;96994.91;4424784;32;20100;-80
2023/08/05 03:54:56;;;;;;;5.53;2.40;;;;;;;21.25;97.60;96993.13;4410774;32;20082;-80
2023/08/05 03:57:23;;;;;;;6.30;2.42;;;;;;;20.98;99.75;96985.47;4424763;32;20508;-79
2023/08/05 03:59:50;;;;;;;6.15;2.50;;;;;;;21.25;97.33;96995.75;4424658;32;20165;-80
2023/08/05 04:02:17;;;;;;;8.20;2.55;;;;;;;21.70;95.30;96994.62;4424333;32;20085;-80
2023/08/05 04:04:44;;;;;;;7.18;2.95;;;;;;;21.82;93.54;97001.22;4424689;32;20085;-80
2023/08/05 04:07:12;;;;;;;6.53;2.60;;;;;;;22.55;89.29;97015.44;4410678;32;20129;-80
2023/08/05 04:09:40;;;;;;;5.85;2.58;;;;;;;23.25;85.38;97010.38;4425401;32;20109;-80
2023/08/05 04:12:09;;;;;;;6.40;2.72;;;;;;;23.46;82.69;96999.25;4426557;32;20086;-80
2023/08/05 04:14:39;;;;;;;6.45;2.62;;;;;;;22.92;85.37;97002.56;4426485;32;20097;-80
2023/08/05 04:17:08;;;;;;;7.28;3.08;;;;;;;24.74;74.97;97010.94;4412214;32;20129;-80
2023/08/05 04:19:37;;;;;;;6.78;2.80;;;;;;;24.71;74.16;97013.97;4426511;32;20085;-80
2023/08/05 04:22:04;;;;;;;6.15;2.70;;;;;;;25.16;72.11;97014.84;4426163;32;20085;-80
2023/08/05 04:24:32;;;;;;;5.35;2.53;;;;;;;24.85;74.42;97021.06;4426530;32;20201;-80
2023/08/05 04:26:59;;;;;;;4.47;2.17;;;;;;;25.32;71.68;97028.69;4426241;32;20651;-80
2023/08/05 04:29:26;;;;;;;6.07;2.60;;;;;;;25.07;72.04;97037.88;4425995;32;20101;-80
2023/08/05 04:31:53;;;;;;;6.55;3.10;;;;;;;25.11;71.85;97043.63;4426448;32;20086;-80
2023/08/05 04:34:20;;;;;;;7.87;2.70;;;;;;;24.65;74.38;97068.22;4426292;32;20081;-80
2023/08/05 04:36:49;;;;;;;7.18;2.90;;;;;;;24.29;77.24;97075.06;4425967;32;20169;-80
2023/08/05 04:39:21;;;;;;;7.80;3.28;;;;;;;23.94;79.04;97053.56;4426546;32;20159;-80
2023/08/05 04:41:48;;;;;;;6.87;2.90;;;;;;;23.59;81.57;97052.22;4426256;32;20440;-80
2023/08/05 04:44:15;;;;;;;7.05;3.30;;;;;;;23.15;83.85;97051.84;4426001;32;20120;-80
2023/08/05 04:46:42;;;;;;;7.95;3.67;;;;;;;22.75;87.26;97040.38;4426219;32;20128;-80
2023/08/05 04:49:11;;;;;;;8.02;3.78;;;;;;;22.49;90.06;97035.28;4426340;32;20101;-80
2023/08/05 04:51:38;;;;;;;10.85;3.62;;;;;;;22.31;89.52;97024.12;4425766;32;20424;-80
2023/08/05 04:54:05;;;;;;;8.13;3.47;;;;;;;22.08;92.51;97030.00;4412383;32;20149;-80
2023/08/05 04:56:33;;;;;;;8.73;4.00;;;;;;;23.07;84.87;97045.63;4426134;32;20600;-80
2023/08/05 04:59:00;;;;;;;8.82;4.03;;;;;;;23.40;82.37;97052.63;4426050;32;20090;-80
2023/08/05 05:01:27;;;;;;;11.32;4.60;;;;;;;23.19;82.04;97040.84;4426093;32;20101;-80
2023/08/05 05:03:54;;;;;;;11.15;5.03;;;;;;;22.76;83.75;97034.16;4426141;32;20161;-80
2023/08/05 05:06:24;;;;;;;10.45;5.43;;;;;;;22.91;82.31;97029.88;4425606;32;20169;-80
2023/08/05 05:08:50;;;;;;;10.23;5.22;;;;;;;23.43;80.02;97028.56;4426244;32;20440;-80
2023/08/05 05:11:17;;;;;;;10.90;5.10;;;;;;;22.63;85.28;97034.63;4425743;32;20094;-80
2023/08/05 05:13:50;;;;;;;12.55;5.53;;;;;;;22.83;84.26;97032.47;4425970;32;20153;-80
2023/08/05 05:16:17;;;;;;;10.93;4.53;;;;;;;22.78;84.55;97029.53;4426100;32;20120;-80
2023/08/05 05:18:44;;;;;;;11.90;5.20;;;;;;;22.41;87.62;97025.59;4412029;32;20106;-80
2023/08/05 05:21:11;;;;;;;10.43;5.30;;;;;;;22.29;88.16;97021.66;4425205;32;20094;-80
2023/08/05 05:23:38;;;;;;;11.77;4.93;;;;;;;22.10;90.47;97022.78;4426060;32;20424;-80
2023/08/05 05:26:06;;;;;;;9.98;5.10;;;;;;;23.31;84.08;97015.78;4425597;32;20101;-80
2023/08/05 05:28:33;;;;;;;9.40;4.97;;;;;;;23.71;82.50;97021.06;4412203;32;20110;-80
2023/08/05 05:31:03;;;;;;;10.48;5.10;;;;;;;22.96;85.31;97018.84;4425702;32;20146;-80
2023/08/05 05:33:30;;;;;;;11.12;4.82;;;;;;;24.08;79.25;97007.19;4425695;32;20078;-80
2023/08/05 05:35:57;;;;;;;13.88;4.78;;;;;;;24.49;76.53;97007.72;4425887;32;20161;-80
2023/08/05 05:38:24;;;;;;;10.90;5.45;;;;;;;24.49;75.44;97015.63;4426018;32;20101;-80
2023/08/05 05:40:54;;;;;;;9.25;4.62;;;;;;;23.91;78.26;97017.00;4425526;32;20150;-80
2023/08/05 05:43:21;;;;;;;11.02;4.80;;;;;;;24.97;75.07;97010.88;4425942;32;20177;-80
2023/08/05 05:45:52;;;;;;;10.57;4.78;;;;;;;25.04;72.69;96996.81;4425819;32;20165;-80
2023/08/05 05:48:19;;;;;;;9.15;4.90;;;;;;;24.04;76.41;96998.00;4425581;32;20391;-80
2023/08/05 05:50:46;;;;;;;9.18;4.60;;;;;;;24.16;76.61;96994.78;4425762;32;20097;-80
2023/08/05 05:53:16;;;;;;;10.20;5.03;;;;;;;23.30;83.29;96987.84;4425797;32;20082;-80
2023/08/05 05:55:45;;;;;;;11.30;4.93;;;;;;;23.08;85.40;96985.94;4425658;32;20534;-80
2023/08/05 05:58:13;;;;;;;9.55;5.10;;;;;;;23.42;83.25;96984.81;4425739;32;20093;-80
2023/08/05 06:00:40;;;;;;;10.23;4.55;;;;;;;22.47;89.40;96971.56;4425288;32;20093;-80
2023/08/05 06:03:07;;;;;;;10.02;5.03;;;;;;;22.24;92.71;96966.16;4425829;32;20384;-80
2023/08/05 06:05:34;;;;;;;10.98;5.85;;;;;;;21.57;97.67;96960.13;4425740;32;20511;-80
2023/08/05 06:08:01;;;;;;;9.27;5.12;;;;;;;22.51;90.28;96960.53;4425542;32;20141;-80
2023/08/05 06:10:29;;;;;;;12.45;5.80;;;;;;;22.01;94.70;96968.59;4425636;32;20089;-80
2023/08/05 06:12:56;;;;;;;10.20;5.22;;;;;;;22.47;93.02;96966.31;4425748;32;20081;-80
2023/08/05 06:15:23;;;;;;;10.43;5.65;;;;;;;22.36;92.87;96971.91;4425270;32;20110;-80
2023/08/05 06:17:50;;;;;;;9.88;4.78;;;;;;;23.09;88.72;96971.78;4425743;32;20110;-80
2023/08/05 06:20:18;;;;;;;10.32;5.15;;;;;;;23.40;84.95;96989.44;4425457;32;20159;-80
2023/08/05 06:22:44;;;;;;;9.23;4.78;;;;;;;24.64;77.15;97000.66;4425276;32;20101;-80
2023/08/05 06:25:12;;;;;;;9.60;4.85;;;;;;;24.35;78.22;96998.78;4425624;32;20090;-80
2023/08/05 06:27:39;;;;;;;11.27;5.43;;;;;;;24.03;79.81;96996.34;4425607;32;20366;-80
2023/08/05 06:30:06;;;;;;;11.50;4.53;;;;;;;24.53;79.01;96998.44;4425037;32;20500;-80
2023/08/05 06:32:33;;;;;;;9.55;4.55;;;;;;;25.29;74.77;96993.91;4425441;32;20119;-80
2023/08/05 06:35:00;;;;;;;9.55;4.72;;;;;;;25.66;72.83;96992.94;4425469;32;20090;-80
2023/08/05 06:37:27;;;;;;;9.30;5.10;;;;;;;24.96;74.83;96988.13;4420451;32;150795;-80
2023/08/05 06:39:54;;;;;;;9.18;4.78;;;;;;;23.79;81.45;96986.78;4411747;32;20089;-80
2023/08/05 06:42:23;;;;;;;10.38;4.60;;;;;;;24.46;77.17;96987.81;4425529;32;20458;-81
2023/08/05 06:44:51;;;;;;;9.02;4.57;;;;;;;24.68;76.69;96986.12;4425502;32;20490;-80
2023/08/05 06:47:18;;;;;;;9.48;4.43;;;;;;;25.43;71.85;96979.88;4425401;32;20111;-80
2023/08/05 06:49:45;;;;;;;11.05;4.53;;;;;;;24.72;75.36;96983.94;4425199;32;20188;-80
2023/08/05 06:52:12;;;;;;;9.55;4.70;;;;;;;24.10;80.19;96984.09;4425432;32;20101;-80
2023/08/05 06:54:38;;;;;;;9.55;4.65;;;;;;;24.36;77.81;96983.78;4425360;32;20105;-80
2023/08/05 06:57:06;;;;;;;9.45;4.90;;;;;;;24.62;76.74;96983.37;4425009;32;20158;-80
2023/08/05 06:59:33;;;;;;;9.27;4.60;;;;;;;24.17;80.08;96992.97;4425445;32;20077;-80
2023/08/05 07:02:00;;;;;;;10.25;4.70;;;;;;;24.89;75.89;96993.34;4425328;32;20094;-80
2023/08/05 07:04:27;;;;;;;9.07;4.60;;;;;;;25.07;75.84;97003.56;4425044;32;20165;-80
2023/08/05 07:06:54;;;;;;;9.43;4.62;;;;;;;25.86;70.59;97004.59;4425261;32;20105;-80
2023/08/05 07:09:21;;;;;;;8.68;4.47;;;;;;;25.93;69.89;97002.81;4425235;32;20086;-80
2023/08/05 07:11:48;;;;;;;8.18;4.12;;;;;;;25.56;71.69;97016.19;4424974;32;20108;-80
2023/08/05 07:14:15;;;;;;;10.63;4.15;;;;;;;26.27;67.35;97024.31;4425252;32;20151;-80
2023/08/05 07:16:42;;;;;;;8.73;4.22;;;;;;;26.42;65.74;97036.50;4425175;32;20107;-80
2023/08/05 07:19:09;;;;;;;9.75;4.57;;;;;;;26.48;66.17;97030.44;4425542;32;20179;-81
2023/08/05 07:21:37;;;;;;;10.18;4.60;;;;;;;26.33;66.94;97034.13;4425814;32;20096;-80
2023/08/05 07:24:04;;;;;;;9.95;4.30;;;;;;;26.71;64.49;97042.66;4425778;32;20466;-80
2023/08/05 07:26:31;;;;;;;8.27;4.10;;;;;;;26.59;65.00;97037.06;4425309;32;20162;-80
2023/08/05 07:28:58;;;;;;;11.25;4.20;;;;;;;26.86;64.44;97030.13;4425992;32;20077;-80
2023/08/05 07:31:25;;;;;;;9.48;4.32;;;;;;;26.91;64.92;97048.91;4425356;32;20086;-81
2023/08/05 07:33:52;;;;;;;9.43;4.32;;;;;;;26.64;64.60;97042.56;4411701;32;20179;-80
2023/08/05 07:36:22;;;;;;;8.10;4.30;;;;;;;26.20;67.79;97042.75;4425550;32;20135;-80
2023/08/05 07:38:51;;;;;;;9.95;4.37;;;;;;;26.31;68.10;97057.31;4425657;32;20097;-81
2023/08/05 07:41:20;;;;;;;8.23;4.32;;;;;;;26.78;65.48;97048.78;4425570;32;20100;-80
2023/08/05 07:43:47;;;;;;;8.93;4.57;;;;;;;25.55;70.86;97035.69;4411225;32;20161;-80
2023/08/05 07:46:15;;;;;;;12.88;4.37;;;;;;;25.17;73.36;97032.31;4425165;32;20121;-80
2023/08/05 07:48:45;;;;;;;10.55;4.60;;;;;;;24.89;74.98;97022.38;4425590;32;20437;-80
2023/08/05 07:51:12;;;;;;;8.75;4.18;;;;;;;;;;4425631;32;20082;-80
2023/08/05 07:53:39;;;;;;;8.98;4.43;;;;;;;26.45;67.01;97043.22;4424749;32;20455;-80
2023/08/05 07:56:14;;;;;;;8.38;3.95;;;;;;;26.62;66.73;97039.31;4424764;32;20223;-80
2023/08/05 07:58:45;;;;;;;9.38;4.43;;;;;;;27.27;62.60;97053.25;4410825;32;20165;-80
2023/08/05 08:01:17;;;;;;;8.23;4.15;;;;;;;26.95;64.00;97049.34;4424329;32;20108;-81
2023/08/05 08:03:45;;;;;;;8.90;4.05;;;;;;;26.93;63.54;97064.59;4424963;32;20566;-80
2023/08/05 08:06:15;;;;;;;11.10;4.68;;;;;;;26.73;64.80;97057.31;4424685;32;20094;-80
2023/08/05 08:08:45;;;;;;;10.50;4.30;;;;;;;26.75;64.33;97060.59;4424362;32;20120;-80
2023/08/05 08:11:13;;;;;;;9.45;4.55;;;;;;;26.50;65.03;97068.09;4424563;32;20143;-80
2023/08/05 08:13:40;;;;;;;9.13;4.65;;;;;;;26.45;65.95;97059.91;4424280;32;20112;-80
2023/08/05 08:16:07;;;;;;;8.88;4.15;;;;;;;26.24;67.15;97058.03;4424379;32;20102;-80
2023/08/05 08:18:34;;;;;;;9.40;4.50;;;;;;;26.57;65.86;97064.69;4424550;32;20639;-80
2023/08/05 08:21:01;;;;;;;10.18;4.50;;;;;;;27.37;61.92;97062.47;4424079;32;20160;-80
2023/08/05 08:23:28;;;;;;;10.25;4.12;;;;;;;27.37;61.46;97059.00;4424407;32;20086;-80
2023/08/05 08:25:58;;;;;;;10.10;4.57;;;;;;;27.29;62.87;97073.22;4424395;32;20102;-80
2023/08/05 08:28:28;;;;;;;8.50;4.75;;;;;;;27.47;61.32;97062.12;4424040;32;20730;-81
2023/08/05 08:30:57;;;;;;;9.45;4.53;;;;;;;27.43;62.49;97049.44;4423961;32;20073;-81
2023/08/05 08:33:25;;;;;;;8.65;4.40;;;;;;;27.67;61.30;97046.34;4425800;32;20090;-80
2023/08/05 08:35:52;;;;;;;8.43;4.35;;;;;;;26.89;64.95;97048.25;4425624;32;20070;-80
2023/08/05 08:38:20;;;;;;;7.70;4.30;;;;;;;27.51;61.73;97065.19;4425011;32;20155;-79
2023/08/05 08:40:51;;;;;;;9.60;4.28;;;;;;;27.63;62.30;97067.06;4424139;32;20552;-79
2023/08/05 08:43:20;;;;;;;9.15;4.25;;;;;;;27.91;60.93;97074.97;4423965;32;20113;-79
2023/08/05 08:45:48;;;;;;;7.82;3.90;;;;;;;28.77;57.21;97082.34;4410189;32;20172;-79
2023/08/05 08:48:15;;;;;;;10.48;4.32;;;;;;;28.53;58.41;97079.25;4410260;32;20427;-79
2023/08/05 08:50:44;;;;;;;8.27;4.20;;;;;;;28.39;57.03;97067.00;4423572;32;20190;-79
2023/08/05 08:53:12;;;;;;;9.20;4.22;;;;;;;28.55;56.57;97075.59;4423985;32;20444;-79
2023/08/05 08:55:43;;;;;;;7.22;3.83;;;;;;;28.32;57.39;97068.00;4425038;32;20101;-79
2023/08/05 08:58:11;;;;;;;9.90;4.37;;;;;;;27.26;61.96;97062.19;4426347;32;20781;-79
2023/08/05 09:00:38;;;;;;;8.38;4.32;;;;;;;27.63;60.66;97072.38;4426274;32;20122;-79
2023/08/05 09:03:06;;;;;;;8.23;4.05;;;;;;;28.47;58.23;97074.75;4412086;32;20128;-79
2023/08/05 09:05:40;;;;;;;8.43;4.50;;;;;;;28.56;57.63;97064.75;4426182;32;20178;-79
2023/08/05 09:08:08;;;;;;;9.32;4.37;;;;;;;26.97;63.75;97055.25;4412457;32;20169;-79
2023/08/05 09:10:38;;;;;;;8.80;4.65;;;;;;;25.91;68.58;97049.75;4425805;32;20143;-79
2023/08/05 09:13:06;;;;;;;9.60;4.62;;;;;;;26.40;66.74;97038.50;4426071;32;20199;-79
2023/08/05 09:15:36;;;;;;;8.40;4.28;;;;;;;27.05;64.46;97039.25;4426062;32;20106;-79
2023/08/05 09:18:04;;;;;;;9.23;4.50;;;;;;;27.63;61.94;97037.13;4425701;32;20086;-79
2023/08/05 09:20:32;;;;;;;8.50;4.30;;;;;;;27.38;63.47;97032.31;4426080;32;20161;-79
2023/08/05 09:23:03;;;;;;;9.20;4.55;;;;;;;26.93;65.10;97035.47;4426215;32;20113;-79
2023/08/05 09:25:31;;;;;;;8.70;4.70;;;;;;;26.20;67.51;97027.72;4425713;32;20097;-79
2023/08/05 09:28:01;;;;;;;8.45;4.50;;;;;;;26.22;69.75;97022.22;4426012;32;20086;-79
2023/08/05 09:30:28;;;;;;;12.70;5.22;;;;;;;26.14;69.78;97025.81;4425787;32;20151;-79
2023/08/05 09:32:55;;;;;;;12.40;4.90;;;;;;;25.41;72.83;97032.03;4425636;32;20098;-79
2023/08/05 09:35:24;;;;;;;9.65;4.90;;;;;;;25.69;72.99;97032.19;4425899;32;20157;-79
2023/08/05 09:37:52;;;;;;;10.23;4.90;;;;;;;25.50;74.61;97030.94;4425547;32;20094;-79
2023/08/05 09:40:28;;;;;;;10.00;4.78;;;;;;;26.35;70.57;97030.28;4425832;32;20148;-79
2023/08/05 09:43:00;;;;;;;9.75;5.18;;;;;;;26.31;70.74;97033.50;4412282;32;20113;-79
2023/08/05 09:45:33;;;;;;;10.48;5.15;;;;;;;26.12;71.28;97041.03;4411792;32;20539;-79
2023/08/05 09:48:08;;;;;;;10.40;5.20;;;;;;;27.44;64.51;97040.50;4412863;32;20086;-79
2023/08/05 09:50:38;;;;;;;10.95;5.70;;;;;;;27.09;65.69;97036.00;4425887;32;20104;-79
2023/08/05 09:53:06;;;;;;;8.98;4.72;;;;;;;26.56;69.04;97032.12;4411771;32;20412;-79
2023/08/05 09:55:38;;;;;;;9.80;5.10;;;;;;;27.94;62.72;97029.50;4425687;32;20160;-79
2023/08/05 09:58:08;;;;;;;9.35;4.90;;;;;;;28.45;60.86;97044.94;4425827;32;20472;-79
2023/08/05 10:00:37;;;;;;;9.57;5.12;;;;;;;27.88;62.77;97048.06;4425367;32;20085;-79
2023/08/05 10:03:06;;;;;;;13.85;4.90;;;;;;;28.01;62.59;97045.44;4425707;32;20098;-79
2023/08/05 10:05:35;;;;;;;10.75;5.30;;;;;;;27.44;65.56;97043.16;4412369;32;20132;-79
2023/08/05 10:08:05;;;;;;;9.55;5.50;;;;;;;26.60;70.51;97046.63;4424975;32;20557;-80
2023/08/05 10:10:33;;;;;;;9.77;5.00;;;;;;;26.96;67.73;97050.97;4425745;32;20432;-80
2023/08/05 10:13:08;;;;;;;14.98;6.10;;;;;;;27.12;66.69;97058.66;4411750;32;20105;-80
2023/08/05 10:15:41;;;;;;;11.27;5.70;;;;;;;28.31;61.45;97069.03;4412529;32;20097;-79
2023/08/05 10:18:09;;;;;;;10.60;5.80;;;;;;;29.08;57.84;97068.47;4411965;32;20102;-79
2023/08/05 10:20:39;;;;;;;10.10;5.57;;;;;;;28.21;61.75;97074.69;4425265;32;20109;-80
2023/08/05 10:23:10;;;;;;;12.18;5.78;;;;;;;28.65;60.09;97078.66;4425579;32;20397;-80
2023/08/05 10:25:40;;;;;;;12.15;5.93;;;;;;;28.34;61.41;97079.22;4425605;32;20157;-80
2023/08/05 10:28:11;;;;;;;12.05;5.95;;;;;;;28.24;61.96;97069.78;4425264;32;20450;-80
2023/08/05 10:30:42;;;;;;;10.07;5.85;;;;;;;29.24;58.29;97053.94;4411909;32;20125;-80
2023/08/05 10:33:09;;;;;;;10.55;5.93;;;;;;;29.36;57.89;97045.13;4425737;32;20090;-80
2023/08/05 10:35:43;;;;;;;10.95;6.05;;;;;;;29.78;57.25;97058.13;4411318;32;20128;-80
2023/08/05 10:38:22;;;;;;;11.07;5.82;;;;;;;30.09;55.42;97068.81;4425641;32;20085;-80
2023/08/05 10:40:51;;;;;;;11.43;5.80;;;;;;;30.12;55.20;97073.72;4425422;32;20424;-80
2023/08/05 10:43:33;;;;;;;11.12;6.03;;;;;;;30.34;54.39;97087.53;4425295;32;20098;-79
2023/08/05 10:46:11;;;;;;;12.73;6.22;;;;;;;29.85;55.94;97070.34;4425459;32;20496;-79
2023/08/05 10:48:38;;;;;;;12.48;6.10;;;;;;;30.05;54.90;97075.56;4425221;32;20090;-79
2023/08/05 10:51:12;;;;;;;11.55;6.12;;;;;;;29.74;56.88;97070.19;4425382;32;20192;-79
2023/08/05 10:53:40;;;;;;;11.30;6.05;;;;;;;29.91;55.79;97072.16;4425516;32;20121;-79
2023/08/05 10:56:13;;;;;;;13.70;6.70;;;;;;;29.94;55.28;97089.53;4411168;32;20101;-79
2023/08/05 10:58:50;;;;;;;10.98;6.20;;;;;;;29.74;55.80;97094.91;4425453;32;20078;-79
2023/08/05 11:01:18;;;;;;;15.65;6.95;;;;;;;28.86;59.44;97089.09;4425343;32;20081;-79
2023/08/05 11:03:47;;;;;;;13.45;6.90;;;;;;;29.03;59.52;97084.19;4425051;32;20098;-79
2023/08/05 11:06:15;;;;;;;11.27;6.28;;;;;;;29.38;58.07;97079.47;4425283;32;20120;-79
2023/08/05 11:08:42;;;;;;;12.60;6.65;;;;;;;29.12;58.56;97087.47;4411509;32;20105;-79
2023/08/05 11:11:11;;;;;;;14.98;7.07;;;;;;;29.30;57.44;97095.63;4424941;32;20157;-79
2023/08/05 11:13:42;;;;;;;14.38;7.20;;;;;;;29.22;58.28;97093.16;4411523;32;20137;-79
2023/08/05 11:16:11;;;;;;;11.82;6.30;;;;;;;29.00;58.84;97092.56;4411261;32;20109;-79
2023/08/05 11:18:39;;;;;;;13.18;6.85;;;;;;;28.61;60.37;97085.41;4410409;32;20094;-79
2023/08/05 11:21:08;;;;;;;12.23;6.53;;;;;;;28.22;62.54;97077.13;4411351;32;20104;-79
2023/08/05 11:23:39;;;;;;;12.73;7.25;;;;;;;28.12;62.89;97074.03;4411047;32;20125;-79
2023/08/05 11:26:08;;;;;;;15.73;7.97;;;;;;;28.25;62.10;97084.66;4411369;32;20118;-79
2023/08/05 11:28:35;;;;;;;13.60;8.00;;;;;;;27.93;64.44;97082.75;4411323;32;20132;-79
2023/08/05 11:31:02;;;;;;;14.95;9.60;;;;;;;27.93;64.10;97085.38;4424452;32;20137;-79
2023/08/05 11:33:29;;;;;;;15.65;9.68;;;;;;;28.11;62.26;97104.22;4425207;32;20116;-79